createdAt,value
2018-12-02T00:02:00.173Z,4.30
2018-12-02T00:04:29.490Z,3.70
2018-12-02T00:06:58.819Z,5.30
2018-12-02T00:09:28.252Z,5.57
2018-12-02T00:11:57.602Z,6.00
2018-12-02T00:14:27.033Z,4.70
2018-12-02T00:16:56.389Z,5.17
2018-12-02T00:19:25.839Z,5.00
2018-12-02T00:21:55.241Z,4.17
2018-12-02T00:24:24.664Z,5.17
2018-12-02T00:26:54.075Z,2.87
2018-12-02T00:29:23.640Z,7.93
2018-12-02T00:31:53.010Z,3.03
2018-12-02T00:34:22.399Z,2.60
2018-12-02T00:36:52.210Z,6.93
2018-12-02T00:39:21.545Z,5.93
2018-12-02T00:41:50.923Z,5.93
2018-12-02T00:44:20.398Z,5.37
2018-12-02T00:46:49.756Z,4.00
2018-12-02T00:49:19.286Z,2.83
2018-12-02T00:51:48.744Z,3.87
2018-12-02T00:54:18.125Z,4.27
2018-12-02T00:56:47.642Z,2.77
2018-12-02T00:59:16.922Z,1.97
2018-12-02T01:01:46.404Z,3.87
2018-12-02T01:04:15.813Z,3.20
2018-12-02T01:06:45.319Z,3.40
2018-12-02T01:09:14.610Z,3.57
2018-12-02T01:11:43.987Z,4.00
2018-12-02T01:14:13.418Z,3.37
2018-12-02T01:16:42.744Z,3.03
2018-12-02T01:19:12.120Z,5.47
2018-12-02T01:21:41.477Z,4.47
2018-12-02T01:24:10.929Z,4.17
2018-12-02T01:26:40.256Z,3.60
2018-12-02T01:29:09.710Z,2.73
2018-12-02T01:31:38.992Z,3.33
2018-12-02T01:34:08.435Z,4.20
2018-12-02T01:36:37.820Z,2.50
2018-12-02T01:39:08.168Z,5.37
2018-12-02T01:41:37.524Z,6.07
2018-12-02T01:44:06.953Z,3.43
2018-12-02T01:46:36.351Z,4.70
2018-12-02T01:49:06.064Z,5.03
2018-12-02T01:51:35.408Z,6.37
2018-12-02T01:54:04.835Z,4.00
2018-12-02T01:56:34.213Z,3.37
2018-12-02T01:59:03.618Z,3.17
2018-12-02T02:01:32.997Z,3.43
2018-12-02T02:04:02.482Z,3.47
2018-12-02T02:06:31.803Z,4.03
2018-12-02T02:09:01.180Z,4.73
2018-12-02T02:11:30.607Z,4.37
2018-12-02T02:13:59.981Z,4.77
2018-12-02T02:16:29.418Z,6.67
2018-12-02T02:18:58.823Z,5.20
2018-12-02T02:21:28.121Z,4.60
2018-12-02T02:23:57.468Z,5.37
2018-12-02T02:26:26.789Z,5.37
2018-12-02T02:28:56.153Z,7.00
2018-12-02T02:31:25.452Z,6.03
2018-12-02T02:33:54.849Z,5.37
2018-12-02T02:36:24.253Z,5.70
2018-12-02T02:38:53.645Z,4.87
2018-12-02T02:41:23.047Z,5.00
2018-12-02T02:43:52.360Z,6.97
2018-12-02T02:46:21.710Z,3.90
2018-12-02T02:48:51.163Z,4.77
2018-12-02T02:51:20.594Z,5.47
2018-12-02T02:53:50.003Z,5.43
2018-12-02T02:56:19.297Z,5.27
2018-12-02T02:58:48.625Z,4.63
2018-12-02T03:01:18.084Z,3.83
2018-12-02T03:03:47.667Z,8.67
2018-12-02T03:06:17.096Z,7.27
2018-12-02T03:08:46.578Z,7.17
2018-12-02T03:11:16.013Z,5.03
2018-12-02T03:13:46.052Z,7.33
2018-12-02T03:16:14.718Z,6.70
2018-12-02T03:18:44.024Z,7.10
2018-12-02T03:21:13.460Z,8.07
2018-12-02T03:23:42.889Z,6.73
2018-12-02T03:26:12.291Z,5.77
2018-12-02T03:28:41.801Z,6.17
2018-12-02T03:31:11.218Z,6.23
2018-12-02T03:33:41.398Z,6.73
2018-12-02T03:36:10.721Z,5.63
2018-12-02T03:38:40.063Z,6.83
2018-12-02T03:41:09.437Z,5.87
2018-12-02T03:43:38.905Z,5.37
2018-12-02T03:46:09.597Z,8.17
2018-12-02T03:48:37.641Z,6.17
2018-12-02T03:51:06.987Z,5.50
2018-12-02T03:53:36.311Z,8.80
2018-12-02T03:56:05.760Z,8.10
2018-12-02T03:58:35.081Z,8.47
2018-12-02T04:01:04.384Z,7.10
2018-12-02T04:03:33.873Z,5.90
2018-12-02T04:06:03.369Z,5.67
2018-12-02T04:08:32.751Z,5.63
2018-12-02T04:11:02.231Z,7.13
2018-12-02T04:13:31.525Z,6.83
2018-12-02T04:16:01.015Z,7.13
2018-12-02T04:18:30.466Z,8.90
2018-12-02T04:20:59.839Z,4.60
2018-12-02T04:23:29.252Z,5.67
2018-12-02T04:25:58.680Z,7.23
2018-12-02T04:28:28.133Z,7.70
2018-12-02T04:30:57.475Z,5.90
2018-12-02T04:33:27.039Z,5.20
2018-12-02T04:35:56.414Z,5.17
2018-12-02T04:38:25.939Z,5.53
2018-12-02T04:40:55.321Z,5.87
2018-12-02T04:43:27.873Z,7.07
2018-12-02T04:45:57.284Z,6.97
2018-12-02T04:48:26.666Z,7.27
2018-12-02T04:50:56.010Z,5.13
2018-12-02T04:53:25.271Z,4.20
2018-12-02T04:55:54.745Z,5.27
2018-12-02T04:58:24.036Z,5.03
2018-12-02T05:00:53.370Z,5.10
2018-12-02T05:03:22.726Z,6.07
2018-12-02T05:05:52.006Z,3.17
2018-12-02T05:08:21.397Z,4.53
2018-12-02T05:10:50.798Z,3.93
2018-12-02T05:13:20.112Z,4.93
2018-12-02T05:15:49.456Z,3.00
2018-12-02T05:18:18.820Z,5.30
2018-12-02T05:20:48.224Z,3.90
2018-12-02T05:23:18.095Z,5.50
2018-12-02T05:25:47.386Z,4.63
2018-12-02T05:28:16.737Z,5.80
2018-12-02T05:30:50.063Z,4.60
2018-12-02T05:33:19.391Z,4.80
2018-12-02T05:35:49.005Z,3.87
2018-12-02T05:38:18.302Z,5.23
2018-12-02T05:40:47.638Z,5.13
2018-12-02T05:43:17.007Z,5.97
2018-12-02T05:45:46.355Z,4.43
2018-12-02T05:48:15.956Z,4.10
2018-12-02T05:50:45.667Z,4.47
2018-12-02T05:53:14.946Z,7.37
2018-12-02T05:55:44.366Z,3.43
2018-12-02T05:58:14.494Z,4.57
2018-12-02T06:00:43.850Z,4.30
2018-12-02T06:03:13.296Z,3.53
2018-12-02T06:05:42.886Z,6.37
2018-12-02T06:08:12.304Z,4.80
2018-12-02T06:10:41.616Z,9.23
2018-12-02T06:13:10.944Z,5.50
2018-12-02T06:15:40.312Z,4.33
2018-12-02T06:18:09.644Z,3.87
2018-12-02T06:20:39.012Z,4.47
2018-12-02T06:23:08.385Z,3.53
2018-12-02T06:25:37.725Z,4.97
2018-12-02T06:28:07.126Z,3.10
2018-12-02T06:30:36.478Z,3.93
2018-12-02T06:33:06.374Z,8.47
2018-12-02T06:35:35.863Z,4.13
2018-12-02T06:38:06.421Z,4.73
2018-12-02T06:40:35.826Z,4.07
2018-12-02T06:43:05.186Z,4.43
2018-12-02T06:45:34.558Z,4.60
2018-12-02T06:48:04.164Z,5.03
2018-12-02T06:50:33.494Z,5.40
2018-12-02T06:53:02.852Z,3.23
2018-12-02T06:56:02.388Z,5.17
2018-12-02T06:58:53.638Z,4.37
2018-12-02T07:01:34.987Z,6.20
2018-12-02T07:04:40.426Z,4.93
2018-12-02T07:07:10.315Z,6.27
2018-12-02T07:09:39.792Z,6.37
2018-12-02T07:12:09.143Z,7.33
2018-12-02T07:14:38.574Z,6.13
2018-12-02T07:17:07.937Z,7.23
2018-12-02T07:19:44.109Z,8.33
2018-12-02T07:22:36.428Z,9.70
2018-12-02T07:25:10.588Z,7.50
2018-12-02T07:27:39.944Z,13.33
2018-12-02T07:30:10.576Z,12.37
2018-12-02T07:32:40.016Z,12.37
2018-12-02T07:35:11.404Z,11.70
2018-12-02T07:37:41.980Z,9.97
2018-12-02T07:40:31.612Z,12.57
2018-12-02T07:43:01.666Z,10.73
2018-12-02T07:45:31.102Z,10.77
2018-12-02T07:48:00.510Z,10.33
2018-12-02T07:50:29.979Z,8.80
2018-12-02T07:52:59.584Z,11.57
2018-12-02T07:55:29.052Z,10.80
2018-12-02T07:57:58.386Z,7.73
2018-12-02T08:00:27.758Z,9.17
2018-12-02T08:02:57.086Z,9.03
2018-12-02T08:05:26.629Z,9.70
2018-12-02T08:07:56.102Z,8.33
2018-12-02T08:10:25.478Z,7.87
2018-12-02T08:12:54.904Z,7.87
2018-12-02T08:15:24.310Z,7.10
2018-12-02T08:17:53.892Z,7.23
2018-12-02T08:20:23.216Z,9.00
2018-12-02T08:22:52.604Z,9.53
2018-12-02T08:25:21.989Z,7.47
2018-12-02T08:27:51.663Z,6.07
2018-12-02T08:30:22.135Z,7.07
2018-12-02T08:32:51.561Z,6.67
2018-12-02T08:35:22.359Z,7.30
2018-12-02T08:37:56.375Z,8.63
2018-12-02T08:40:25.673Z,5.60
2018-12-02T08:42:55.231Z,6.90
2018-12-02T08:45:24.603Z,8.33
2018-12-02T08:47:53.917Z,6.00
2018-12-02T08:50:23.212Z,7.10
2018-12-02T08:52:53.054Z,5.97
2018-12-02T08:55:22.583Z,9.50
2018-12-02T08:57:53.266Z,7.57
2018-12-02T09:00:23.114Z,5.70
2018-12-02T09:02:59.677Z,5.27
2018-12-02T09:05:28.997Z,7.03
2018-12-02T09:07:59.735Z,5.40
2018-12-02T09:10:30.055Z,7.30
2018-12-02T09:13:00.667Z,5.53
2018-12-02T09:15:30.025Z,6.00
2018-12-02T09:17:59.424Z,5.03
2018-12-02T09:20:33.597Z,5.87
2018-12-02T09:23:03.103Z,5.90
2018-12-02T09:25:32.551Z,5.30
2018-12-02T09:28:02.640Z,6.40
2018-12-02T09:30:33.244Z,5.10
2018-12-02T09:33:02.691Z,3.80
2018-12-02T09:35:32.082Z,4.33
2018-12-02T09:38:01.428Z,4.03
2018-12-02T09:40:30.756Z,3.97
2018-12-02T09:43:00.200Z,4.40
2018-12-02T09:45:30.085Z,4.30
2018-12-02T09:48:02.485Z,3.87
2018-12-02T09:50:31.804Z,5.97
2018-12-02T09:53:01.259Z,3.77
2018-12-02T09:55:44.798Z,4.33
2018-12-02T09:58:15.870Z,3.33
2018-12-02T10:00:45.272Z,3.70
2018-12-02T10:03:14.706Z,4.00
2018-12-02T10:05:44.048Z,4.87
2018-12-02T10:08:13.420Z,2.03
2018-12-02T10:10:43.078Z,2.80
2018-12-02T10:13:14.645Z,2.83
2018-12-02T10:15:44.536Z,3.67
2018-12-02T10:18:13.986Z,3.93
2018-12-02T10:20:43.318Z,3.87
2018-12-02T10:23:12.701Z,3.60
2018-12-02T10:25:42.172Z,2.50
2018-12-02T10:28:11.681Z,2.47
2018-12-02T10:30:44.081Z,3.70
2018-12-02T10:33:13.401Z,3.63
2018-12-02T10:35:42.750Z,2.37
2018-12-02T10:38:12.599Z,2.00
2018-12-02T10:40:42.016Z,3.40
2018-12-02T10:43:11.350Z,2.13
2018-12-02T10:45:40.702Z,2.30
2018-12-02T10:48:13.024Z,3.60
2018-12-02T10:50:42.383Z,3.03
2018-12-02T10:53:18.944Z,2.10
2018-12-02T10:55:55.671Z,2.00
2018-12-02T10:58:29.361Z,2.03
2018-12-02T11:01:19.165Z,2.07
2018-12-02T11:03:48.913Z,3.40
2018-12-02T11:06:18.234Z,5.00
2018-12-02T11:08:47.617Z,3.80
2018-12-02T11:11:16.894Z,2.97
2018-12-02T11:13:46.222Z,2.57
2018-12-02T11:16:18.450Z,3.33
2018-12-02T11:18:48.057Z,3.57
2018-12-02T11:21:17.456Z,6.77
2018-12-02T11:23:47.038Z,6.40
2018-12-02T11:26:16.348Z,5.83
2018-12-02T11:28:45.708Z,5.00
2018-12-02T11:31:15.176Z,4.33
2018-12-02T11:33:44.960Z,6.13
2018-12-02T11:36:14.730Z,4.43
2018-12-02T11:38:44.309Z,3.87
2018-12-02T11:41:14.030Z,4.17
2018-12-02T11:43:43.396Z,5.03
2018-12-02T11:46:12.704Z,4.20
2018-12-02T11:48:42.126Z,6.80
2018-12-02T11:51:11.472Z,3.67
2018-12-02T11:53:40.888Z,3.90
2018-12-02T11:56:10.186Z,4.63
2018-12-02T11:58:39.628Z,4.67
2018-12-02T12:01:08.926Z,4.17
2018-12-02T12:03:38.229Z,4.90
2018-12-02T12:06:07.599Z,4.07
2018-12-02T12:08:36.884Z,2.97
2018-12-02T12:11:06.235Z,3.30
2018-12-02T12:13:35.550Z,2.27
2018-12-02T12:16:04.908Z,2.63
2018-12-02T12:18:34.355Z,2.30
2018-12-02T12:21:03.708Z,1.70
2018-12-02T12:23:33.100Z,2.70
2018-12-02T12:26:02.434Z,3.27
2018-12-02T12:28:31.808Z,1.90
2018-12-02T12:31:01.195Z,1.70
2018-12-02T12:33:30.470Z,3.30
2018-12-02T12:35:59.842Z,2.70
2018-12-02T12:38:29.243Z,1.90
2018-12-02T12:40:58.568Z,3.30
2018-12-02T12:43:35.760Z,3.03
2018-12-02T12:46:05.352Z,2.63
2018-12-02T12:48:34.738Z,2.87
2018-12-02T12:51:04.112Z,2.27
2018-12-02T12:53:33.408Z,2.10
2018-12-02T12:56:02.866Z,2.40
2018-12-02T12:58:32.184Z,2.47
2018-12-02T13:01:01.509Z,3.20
2018-12-02T13:03:30.908Z,3.17
2018-12-02T13:06:00.319Z,2.87
2018-12-02T13:08:29.614Z,3.07
2018-12-02T13:10:59.153Z,4.10
2018-12-02T13:13:28.751Z,3.00
2018-12-02T13:15:58.253Z,2.93
2018-12-02T13:18:27.927Z,2.90
2018-12-02T13:20:57.180Z,2.70
2018-12-02T13:23:26.707Z,3.03
2018-12-02T13:25:56.071Z,2.37
2018-12-02T13:28:25.404Z,3.47
2018-12-02T13:30:55.164Z,3.83
2018-12-02T13:33:24.712Z,2.90
2018-12-02T13:35:55.527Z,3.40
2018-12-02T13:38:25.304Z,3.33
2018-12-02T13:40:54.665Z,2.73
2018-12-02T13:43:24.930Z,2.33
2018-12-02T13:45:54.442Z,3.40
2018-12-02T13:48:23.915Z,2.30
2018-12-02T13:50:53.246Z,2.00
2018-12-02T13:53:22.558Z,2.10
2018-12-02T13:55:52.086Z,1.60
2018-12-02T13:58:21.395Z,2.70
2018-12-02T14:00:50.825Z,3.10
2018-12-02T14:03:20.141Z,2.37
2018-12-02T14:05:49.657Z,1.97
2018-12-02T14:08:18.941Z,2.33
2018-12-02T14:10:48.303Z,2.30
2018-12-02T14:13:25.504Z,3.50
2018-12-02T14:16:32.176Z,2.60
2018-12-02T14:19:12.446Z,2.27
2018-12-02T14:21:41.900Z,3.03
2018-12-02T14:24:12.069Z,2.53
2018-12-02T14:26:43.496Z,3.87
2018-12-02T14:29:23.620Z,2.60
2018-12-02T14:31:57.540Z,3.17
2018-12-02T14:34:26.874Z,3.97
2018-12-02T14:36:56.327Z,4.40
2018-12-02T14:39:25.685Z,5.03
2018-12-02T14:41:55.095Z,4.27
2018-12-02T14:44:24.452Z,4.53
2018-12-02T14:46:53.899Z,4.23
2018-12-02T14:49:23.305Z,4.37
2018-12-02T14:51:52.694Z,4.93
2018-12-02T14:54:22.027Z,6.10
2018-12-02T14:56:51.417Z,6.77
2018-12-02T14:59:20.830Z,7.03
2018-12-02T15:01:50.116Z,6.53
2018-12-02T15:04:19.442Z,8.23
2018-12-02T15:06:48.828Z,8.67
2018-12-02T15:09:18.208Z,8.63
2018-12-02T15:11:47.656Z,6.70
2018-12-02T15:14:17.028Z,7.77
2018-12-02T15:16:46.529Z,7.83
2018-12-02T15:19:15.843Z,10.27
2018-12-02T15:21:45.206Z,12.13
2018-12-02T15:24:14.616Z,9.53
2018-12-02T15:26:44.044Z,10.10
2018-12-02T15:29:13.572Z,10.30
2018-12-02T15:31:42.994Z,11.10
2018-12-02T15:34:13.183Z,11.40
2018-12-02T15:36:42.807Z,11.40
2018-12-02T15:39:12.141Z,11.67
2018-12-02T15:41:41.401Z,12.83
2018-12-02T15:44:10.793Z,11.10
2018-12-02T15:46:40.180Z,11.17
2018-12-02T15:49:09.596Z,11.00
2018-12-02T15:51:39.015Z,11.70
2018-12-02T15:54:08.370Z,22.90
2018-12-02T15:56:37.715Z,13.90
2018-12-02T15:59:10.253Z,12.57
2018-12-02T16:01:39.681Z,14.27
2018-12-02T16:04:09.009Z,13.70
2018-12-02T16:06:38.373Z,16.00
2018-12-02T16:09:09.326Z,18.17
2018-12-02T16:11:38.802Z,17.93
2018-12-02T16:14:08.306Z,21.20
2018-12-02T16:16:37.615Z,21.57
2018-12-02T16:19:07.026Z,22.03
2018-12-02T16:21:36.456Z,25.83
2018-12-02T16:24:05.853Z,22.90
2018-12-02T16:26:35.255Z,26.37
2018-12-02T16:29:04.667Z,24.67
2018-12-02T16:31:34.088Z,23.57
2018-12-02T16:34:03.687Z,23.40
2018-12-02T16:36:33.027Z,23.77
2018-12-02T16:39:02.331Z,19.97
2018-12-02T16:41:31.925Z,19.97
2018-12-02T16:44:01.272Z,18.37
2018-12-02T16:46:30.640Z,16.90
2018-12-02T16:49:00.035Z,13.33
2018-12-02T16:51:29.517Z,11.53
2018-12-02T16:53:58.990Z,12.13
2018-12-02T16:56:28.645Z,10.73
2018-12-02T16:59:13.050Z,11.13
2018-12-02T17:01:45.231Z,10.00
2018-12-02T17:04:14.932Z,9.53
2018-12-02T17:06:44.361Z,10.30
2018-12-02T17:09:14.038Z,11.00
2018-12-02T17:11:44.977Z,11.37
2018-12-02T17:14:14.277Z,13.87
2018-12-02T17:16:43.821Z,12.37
2018-12-02T17:19:13.343Z,13.20
2018-12-02T17:21:43.065Z,13.03
2018-12-02T17:24:12.785Z,10.87
2018-12-02T17:26:42.383Z,11.50
2018-12-02T17:29:13.797Z,12.33
2018-12-02T17:31:58.058Z,14.13
2018-12-02T17:34:27.460Z,13.87
2018-12-02T17:36:56.974Z,14.63
2018-12-02T17:39:28.432Z,13.63
2018-12-02T17:42:12.339Z,12.70
2018-12-02T17:44:42.053Z,12.43
2018-12-02T17:47:11.573Z,10.93
2018-12-02T17:49:40.995Z,10.63
2018-12-02T17:52:10.535Z,9.73
2018-12-02T17:54:39.926Z,9.23
2018-12-02T17:57:09.448Z,8.40
2018-12-02T17:59:39.101Z,7.63
2018-12-02T18:02:08.619Z,7.90
2018-12-02T18:04:38.014Z,7.40
2018-12-02T18:07:07.465Z,9.50
2018-12-02T18:09:36.836Z,11.97
2018-12-02T18:12:06.703Z,8.60
2018-12-02T18:14:36.409Z,7.53
2018-12-02T18:17:06.123Z,7.33
2018-12-02T18:19:35.636Z,6.13
2018-12-02T18:22:05.115Z,6.77
2018-12-02T18:24:34.645Z,6.83
2018-12-02T18:27:04.434Z,5.40
2018-12-02T18:29:34.047Z,5.67
2018-12-02T18:32:03.969Z,5.00
2018-12-02T18:34:35.005Z,5.57
2018-12-02T18:37:05.439Z,7.87
2018-12-02T18:39:34.972Z,6.77
2018-12-02T18:42:04.417Z,7.83
2018-12-02T18:44:33.965Z,5.97
2018-12-02T18:47:03.755Z,6.30
2018-12-02T18:49:33.302Z,8.20
2018-12-02T18:52:02.915Z,5.17
2018-12-02T18:54:32.484Z,5.03
2018-12-02T18:57:02.016Z,6.07
2018-12-02T18:59:31.598Z,6.77
2018-12-02T19:02:01.259Z,5.20
2018-12-02T19:04:30.813Z,5.13
2018-12-02T19:07:00.354Z,4.73
2018-12-02T19:09:32.629Z,5.47
2018-12-02T19:11:59.238Z,4.57
2018-12-02T19:14:28.840Z,4.13
2018-12-02T19:16:58.125Z,4.23
2018-12-02T19:19:28.539Z,5.10
2018-12-02T19:21:58.741Z,3.93
2018-12-02T19:24:28.427Z,7.13
2018-12-02T19:26:58.006Z,6.53
2018-12-02T19:29:27.702Z,8.27
2018-12-02T19:31:57.327Z,5.30
2018-12-02T19:34:26.685Z,5.97
2018-12-02T19:36:59.878Z,7.10
2018-12-02T19:39:29.178Z,7.47
2018-12-02T19:41:58.808Z,7.43
2018-12-02T19:44:29.268Z,5.70
2018-12-02T19:46:58.966Z,7.03
2018-12-02T19:49:28.569Z,5.17
2018-12-02T19:51:58.497Z,6.70
2018-12-02T19:54:28.039Z,6.67
2018-12-02T19:56:57.463Z,6.90
2018-12-02T19:59:27.910Z,5.77
2018-12-02T20:01:57.290Z,8.83
2018-12-02T20:04:26.920Z,5.53
2018-12-02T20:06:56.716Z,6.13
2018-12-02T20:09:26.415Z,5.10
2018-12-02T20:11:55.850Z,5.57
2018-12-02T20:14:27.794Z,4.97
2018-12-02T20:16:55.096Z,5.90
2018-12-02T20:19:43.003Z,5.20
2018-12-02T20:22:12.389Z,5.37
2018-12-02T20:24:41.972Z,7.43
2018-12-02T20:27:11.786Z,3.87
2018-12-02T20:29:41.223Z,2.80
2018-12-02T20:32:12.300Z,3.87
2018-12-02T20:34:41.904Z,4.97
2018-12-02T20:37:11.437Z,5.17
2018-12-02T20:39:40.960Z,4.53
2018-12-02T20:42:10.338Z,3.90
2018-12-02T20:44:39.931Z,6.03
2018-12-02T20:47:09.363Z,3.33
2018-12-02T20:49:38.990Z,4.90
2018-12-02T20:52:08.894Z,4.97
2018-12-02T20:54:39.135Z,3.63
2018-12-02T20:57:09.103Z,4.17
2018-12-02T20:59:40.894Z,6.37
2018-12-02T21:02:11.177Z,4.97
2018-12-02T21:04:41.015Z,3.13
2018-12-02T21:07:11.986Z,4.60
2018-12-02T21:09:42.235Z,3.97
2018-12-02T21:12:12.224Z,3.80
2018-12-02T21:14:41.279Z,2.80
2018-12-02T21:17:10.843Z,4.67
2018-12-02T21:19:40.597Z,4.10
2018-12-02T21:22:12.925Z,3.73
2018-12-02T21:24:39.987Z,4.50
2018-12-02T21:27:09.593Z,3.40
2018-12-02T21:29:39.075Z,3.60
2018-12-02T21:32:08.774Z,4.30
2018-12-02T21:34:38.453Z,4.67
2018-12-02T21:37:07.952Z,3.70
2018-12-02T21:39:37.816Z,4.00
2018-12-02T21:42:07.946Z,4.03
2018-12-02T21:44:37.643Z,2.90
2018-12-02T21:47:07.444Z,3.73
2018-12-02T21:49:37.251Z,3.90
2018-12-02T21:52:06.652Z,3.50
2018-12-02T21:54:36.499Z,4.03
2018-12-02T21:57:06.465Z,2.73
2018-12-02T21:59:36.033Z,3.67
2018-12-02T22:02:05.989Z,4.03
2018-12-02T22:04:35.443Z,3.77
2018-12-02T22:07:05.195Z,4.40
2018-12-02T22:09:34.551Z,4.37
2018-12-02T22:12:04.578Z,4.00
2018-12-02T22:14:34.151Z,5.37
2018-12-02T22:17:04.105Z,5.50
2018-12-02T22:19:33.871Z,4.03
2018-12-02T22:22:03.901Z,5.03
2018-12-02T22:24:33.866Z,4.63
2018-12-02T22:27:03.237Z,7.27
2018-12-02T22:29:33.040Z,5.83
2018-12-02T22:32:02.482Z,5.70
2018-12-02T22:34:33.276Z,7.20
2018-12-02T22:37:03.701Z,4.80
2018-12-02T22:39:33.428Z,3.90
2018-12-02T22:42:03.396Z,5.57
2018-12-02T22:44:32.708Z,4.60
2018-12-02T22:47:02.037Z,5.13
2018-12-02T22:49:31.459Z,8.53
2018-12-02T22:52:00.941Z,5.20
2018-12-02T22:54:30.474Z,5.53
2018-12-02T22:56:59.902Z,5.90
2018-12-02T22:59:29.382Z,6.07
2018-12-02T23:02:27.301Z,6.33
2018-12-02T23:04:56.725Z,7.37
2018-12-02T23:07:26.241Z,6.73
2018-12-02T23:09:55.730Z,5.50
2018-12-02T23:12:25.262Z,6.30
2018-12-02T23:14:54.784Z,6.47
2018-12-02T23:17:24.682Z,5.30
2018-12-02T23:19:54.276Z,6.23
2018-12-02T23:22:23.580Z,5.63
2018-12-02T23:24:52.932Z,4.93
2018-12-02T23:27:22.258Z,5.10
2018-12-02T23:29:52.043Z,6.17
2018-12-02T23:32:21.528Z,6.20
2018-12-02T23:34:51.014Z,4.83
2018-12-02T23:37:20.763Z,6.07
2018-12-02T23:39:49.738Z,7.23
2018-12-02T23:42:19.242Z,6.77
2018-12-02T23:44:48.931Z,7.77
2018-12-02T23:47:19.151Z,8.20
2018-12-02T23:49:48.847Z,9.17
2018-12-02T23:52:18.481Z,9.23
2018-12-02T23:54:47.893Z,8.43
2018-12-02T23:57:17.306Z,7.37
2018-12-02T23:59:46.882Z,9.70
